Time;durP1;ratioP1;P1;durP2;ratioP2;P2;SDS_P1;SDS_P2;PMS_P1;PMS_P2;Temp;Humidity;BMP_temperature;BMP_pressure;BME280_temperature;BME280_humidity;BME280_pressure;Samples;Min_cycle;Max_cycle;Signal;HPM_P1;HPM_P2
2024/03/24 00:00:29;;;;;;;4.00;1.88;;;;;;;3.51;100.00;98162.69;5029474;28;20049;-72
2024/03/24 00:02:54;;;;;;;5.97;2.40;;;;;;;3.54;100.00;98171.34;5029438;28;20035;-73
2024/03/24 00:05:20;;;;;;;4.82;1.50;;;;;;;3.49;100.00;98179.91;5041232;28;20031;-73
2024/03/24 00:07:45;;;;;;;8.48;2.40;;;;;;;3.50;100.00;98182.38;5038159;28;20037;-72
2024/03/24 00:10:10;;;;;;;6.28;2.72;;;;;;;3.41;100.00;98171.91;5052225;28;20037;-73
2024/03/24 00:12:36;;;;;;;4.63;1.35;;;;;;;3.38;100.00;98174.91;5050472;28;20013;-73
2024/03/24 00:15:01;;;;;;;6.38;1.80;;;;;;;3.26;100.00;98156.59;5028620;28;20032;-73
2024/03/24 00:17:26;;;;;;;3.75;1.70;;;;;;;3.40;100.00;98176.41;5023551;28;20028;-73
2024/03/24 00:19:51;;;;;;;4.50;1.70;;;;;;;3.17;100.00;98141.59;5041461;28;20021;-73
2024/03/24 00:22:17;;;;;;;5.95;1.33;;;;;;;3.36;100.00;98172.44;5038662;28;20456;-73
2024/03/24 00:24:42;;;;;;;3.50;1.10;;;;;;;3.37;100.00;98181.28;5037775;28;20016;-74
2024/03/24 00:27:07;;;;;;;3.85;1.00;;;;;;;3.25;100.00;98162.13;5054478;28;20028;-73
2024/03/24 00:29:32;;;;;;;5.97;1.08;;;;;;;3.32;100.00;98170.25;5015991;28;20021;-73
2024/03/24 00:31:58;;;;;;;4.53;0.80;;;;;;;3.41;100.00;98185.28;5052181;28;20017;-73
2024/03/24 00:34:23;;;;;;;2.92;0.98;;;;;;;3.36;100.00;98168.94;5033371;28;20060;-73
2024/03/24 00:36:48;;;;;;;1.48;0.98;;;;;;;3.25;100.00;98157.59;5054055;28;20314;-73
2024/03/24 00:39:14;;;;;;;1.65;0.80;;;;;;;3.24;100.00;98155.91;5027160;28;20025;-74
2024/03/24 00:41:39;;;;;;;2.35;0.90;;;;;;;3.37;100.00;98166.06;5024211;28;20075;-74
2024/03/24 00:44:05;;;;;;;2.70;0.80;;;;;;;3.41;100.00;98166.56;5036273;28;20032;-74
2024/03/24 00:46:31;;;;;;;2.35;1.02;;;;;;;3.25;100.00;98159.44;5032299;28;20087;-74
2024/03/24 00:48:57;;;;;;;3.28;0.90;;;;;;;3.27;100.00;98158.28;5040009;28;20251;-74
2024/03/24 00:51:22;;;;;;;3.33;0.75;;;;;;;3.25;100.00;98162.13;5020211;28;20028;-74
2024/03/24 00:53:47;;;;;;;4.50;1.02;;;;;;;3.25;100.00;98152.25;5033146;28;20033;-74
2024/03/24 00:56:13;;;;;;;2.40;1.25;;;;;;;3.25;100.00;98162.94;5040572;28;20021;-74
2024/03/24 00:58:38;;;;;;;4.47;1.23;;;;;;;3.19;100.00;98142.22;5032875;28;20063;-74
2024/03/24 01:01:05;;;;;;;3.50;1.00;;;;;;;3.28;100.00;98159.94;5029884;28;20032;-74
2024/03/24 01:03:32;;;;;;;2.85;1.00;;;;;;;3.35;100.00;98152.03;5038569;28;20351;-74
2024/03/24 01:05:57;;;;;;;5.90;0.90;;;;;;;3.19;100.00;98150.25;5062791;28;20017;-74
2024/03/24 01:08:22;;;;;;;1.95;0.55;;;;;;;3.22;100.00;98146.41;5042553;28;20017;-73
2024/03/24 01:10:48;;;;;;;1.38;0.80;;;;;;;3.31;100.00;98150.72;5022418;28;20104;-73
2024/03/24 01:13:13;;;;;;;1.83;0.65;;;;;;;3.11;100.00;98107.53;5031029;28;20033;-73
2024/03/24 01:15:45;;;;;;;1.92;0.80;;;;;;;3.40;100.00;98143.50;5025228;28;20021;-74
2024/03/24 01:18:11;;;;;;;3.95;0.93;;;;;;;3.29;100.00;98126.81;5044333;28;20021;-74
2024/03/24 01:20:36;;;;;;;3.13;0.88;;;;;;;3.30;100.00;98127.66;5035457;28;20027;-74
2024/03/24 01:23:02;;;;;;;2.03;1.15;;;;;;;3.34;100.00;98134.34;5032426;28;20332;-74
2024/03/24 01:25:27;;;;;;;2.15;1.00;;;;;;;3.33;100.00;98126.47;5028397;28;20315;-73
2024/03/24 01:27:52;;;;;;;1.73;0.90;;;;;;;3.51;100.00;98138.59;5029764;28;20101;-74
2024/03/24 01:30:18;;;;;;;1.45;0.68;;;;;;;3.56;100.00;98140.72;5019312;28;20223;-73
2024/03/24 01:32:43;;;;;;;3.00;1.10;;;;;;;3.44;100.00;98134.97;5028519;28;20029;-74
2024/03/24 01:35:09;;;;;;;1.95;0.65;;;;;;;3.38;100.00;98148.19;5028195;28;20022;-74
2024/03/24 01:37:35;;;;;;;0.80;0.50;;;;;;;3.47;100.00;98149.81;5033188;28;20028;-75
2024/03/24 01:40:01;;;;;;;3.63;0.75;;;;;;;3.27;100.00;98128.88;5028379;28;20137;-74
2024/03/24 01:42:26;;;;;;;1.20;0.68;;;;;;;3.21;100.00;98126.03;5024855;28;20033;-74
2024/03/24 01:44:51;;;;;;;1.42;0.70;;;;;;;2.97;100.00;98094.91;5028332;28;20026;-74
2024/03/24 01:47:17;;;;;;;2.90;0.82;;;;;;;3.10;100.00;98105.03;5027938;28;20025;-74
2024/03/24 01:49:42;;;;;;;3.13;0.80;;;;;;;3.23;100.00;98111.50;5031577;28;20558;-73
2024/03/24 01:52:08;;;;;;;1.85;0.70;;;;;;;3.25;100.00;98114.84;5032050;28;20324;-74
2024/03/24 01:54:36;;;;;;;3.65;1.33;;;;;;;3.18;100.00;98097.81;5027470;28;20022;-74
2024/03/24 01:57:03;;;;;;;2.00;0.98;;;;;;;3.19;100.00;98114.69;5035333;28;20016;-75
2024/03/24 01:59:28;;;;;;;1.13;0.60;;;;;;;3.31;100.00;98123.16;5025913;28;20017;-74
2024/03/24 02:01:55;;;;;;;2.80;0.90;;;;;;;3.19;100.00;98095.97;5028830;28;20024;-74
2024/03/24 02:04:20;;;;;;;1.50;0.80;;;;;;;3.12;100.00;98082.47;5025969;28;20072;-74
2024/03/24 02:06:45;;;;;;;2.45;0.60;;;;;;;3.18;100.00;98088.97;5020784;28;20021;-74
2024/03/24 02:09:11;;;;;;;1.05;0.82;;;;;;;3.14;100.00;98088.47;5022153;28;20037;-74
2024/03/24 02:11:37;;;;;;;0.93;0.60;;;;;;;3.12;100.00;98092.31;5021184;28;20089;-74
2024/03/24 02:14:05;;;;;;;2.38;1.10;;;;;;;3.13;100.00;98097.50;5034455;28;20070;-73
2024/03/24 02:16:30;;;;;;;1.52;0.60;;;;;;;3.10;100.00;98089.84;5021768;28;20021;-73
2024/03/24 02:18:56;;;;;;;2.90;0.77;;;;;;;3.19;100.00;98104.81;5044983;28;20032;-74
2024/03/24 02:21:21;;;;;;;2.15;0.80;;;;;;;3.14;100.00;98096.47;5030837;28;20049;-74
2024/03/24 02:23:48;;;;;;;1.13;0.70;;;;;;;3.17;100.00;98097.97;5021175;28;20028;-74
2024/03/24 02:26:17;;;;;;;4.95;0.98;;;;;;;3.14;100.00;98091.13;5028044;28;20257;-74
2024/03/24 02:28:43;;;;;;;4.05;1.00;;;;;;;3.13;100.00;98086.81;5027242;28;20052;-73
2024/03/24 02:31:08;;;;;;;2.13;0.98;;;;;;;3.04;100.00;98066.47;5030607;28;20251;-74
2024/03/24 02:33:33;;;;;;;5.00;0.70;;;;;;;3.13;100.00;98080.63;5026733;28;20064;-74
2024/03/24 02:35:59;;;;;;;2.05;0.80;;;;;;;2.93;100.00;98061.50;5024952;28;20022;-73
2024/03/24 02:38:24;;;;;;;3.38;0.98;;;;;;;3.08;100.00;98065.13;5023160;28;20067;-72
2024/03/24 02:40:50;;;;;;;0.60;0.60;;;;;;;3.04;100.00;98087.88;5031333;28;20088;-73
2024/03/24 02:43:15;;;;;;;1.08;0.73;;;;;;;2.82;100.00;98054.69;5037697;28;20067;-73
2024/03/24 02:45:41;;;;;;;4.10;0.85;;;;;;;2.74;100.00;98047.53;5023481;28;20029;-73
2024/03/24 02:48:06;;;;;;;3.55;0.85;;;;;;;2.79;100.00;98071.91;5025986;28;20037;-73
2024/03/24 02:50:31;;;;;;;4.15;0.95;;;;;;;2.61;100.00;98057.94;5025231;28;20048;-74
2024/03/24 02:52:57;;;;;;;2.75;0.77;;;;;;;2.54;100.00;98046.25;5028003;28;20260;-73
2024/03/24 02:55:25;;;;;;;2.30;0.73;;;;;;;2.61;100.00;98052.59;5030777;28;20043;-74
2024/03/24 02:57:51;;;;;;;3.97;0.60;;;;;;;2.64;100.00;98052.25;5031537;28;20099;-74
2024/03/24 03:00:17;;;;;;;7.22;1.10;;;;;;;2.72;100.00;98052.22;5028048;28;20095;-73
2024/03/24 03:02:43;;;;;;;1.40;0.60;;;;;;;2.95;100.00;98062.16;5030161;28;20028;-73
2024/03/24 03:05:08;;;;;;;3.70;0.80;;;;;;;2.99;100.00;98058.97;5027225;28;20025;-73
2024/03/24 03:07:34;;;;;;;3.75;0.60;;;;;;;3.00;100.00;98046.44;5015062;28;20087;-73
2024/03/24 03:09:59;;;;;;;6.30;1.00;;;;;;;3.06;100.00;98054.59;5025616;28;20410;-73
2024/03/24 03:12:24;;;;;;;1.80;0.85;;;;;;;3.16;100.00;98050.88;5022749;28;20028;-73
2024/03/24 03:14:51;;;;;;;1.42;0.68;;;;;;;3.05;100.00;98052.94;5023281;28;20021;-72
2024/03/24 03:17:22;;;;;;;0.90;0.60;;;;;;;2.92;100.00;98033.94;5028831;28;20087;-73
2024/03/24 03:19:48;;;;;;;0.95;0.50;;;;;;;2.92;100.00;98047.31;5039042;28;20067;-73
2024/03/24 03:22:13;;;;;;;2.55;0.60;;;;;;;2.84;100.00;98048.19;5016052;28;20025;-74
2024/03/24 03:24:38;;;;;;;1.98;0.47;;;;;;;2.82;100.00;98055.53;5035170;28;20025;-73
2024/03/24 03:27:04;;;;;;;0.70;0.50;;;;;;;2.79;100.00;98049.69;5046415;28;20388;-73
2024/03/24 03:29:29;;;;;;;1.20;0.57;;;;;;;2.77;100.00;98044.53;5022935;28;20089;-73
2024/03/24 03:31:56;;;;;;;2.47;0.63;;;;;;;2.70;100.00;98037.38;5037435;28;20045;-74
2024/03/24 03:34:21;;;;;;;3.22;0.63;;;;;;;2.84;100.00;98048.19;5047461;28;20033;-74
2024/03/24 03:36:47;;;;;;;1.17;0.50;;;;;;;2.84;100.00;98034.00;5040391;28;20347;-74
2024/03/24 03:39:12;;;;;;;0.57;0.40;;;;;;;2.76;100.00;98032.19;5048208;28;20040;-74
2024/03/24 03:41:37;;;;;;;1.38;0.50;;;;;;;2.83;100.00;98035.84;5021464;28;20045;-75
2024/03/24 03:44:03;;;;;;;0.77;0.52;;;;;;;2.81;100.00;98048.53;5029855;28;20025;-74
2024/03/24 03:46:28;;;;;;;1.02;0.63;;;;;;;2.77;100.00;98043.69;5019316;28;20068;-74
2024/03/24 03:48:53;;;;;;;3.90;1.05;;;;;;;2.77;100.00;98039.19;5031116;28;20025;-74
2024/03/24 03:51:27;;;;;;;2.17;0.73;;;;;;;2.63;100.00;98011.34;5028331;28;20075;-74
2024/03/24 03:53:55;;;;;;;2.17;0.88;;;;;;;2.80;100.00;98036.19;5024771;28;20032;-75
2024/03/24 03:56:20;;;;;;;2.42;0.93;;;;;;;2.74;100.00;98025.34;5032857;28;20092;-75
2024/03/24 03:58:45;;;;;;;1.60;0.98;;;;;;;2.94;100.00;98041.81;5031185;28;20063;-75
2024/03/24 04:01:11;;;;;;;4.20;1.27;;;;;;;2.96;100.00;98047.78;5016160;28;20079;-76
2024/03/24 04:03:36;;;;;;;1.52;0.85;;;;;;;2.90;100.00;98029.78;5034156;28;20049;-75
2024/03/24 04:06:03;;;;;;;1.88;1.00;;;;;;;2.85;100.00;98028.47;5032133;28;20100;-75
2024/03/24 04:08:29;;;;;;;2.22;1.20;;;;;;;3.07;100.00;98055.44;5030036;28;20030;-75
2024/03/24 04:10:55;;;;;;;3.45;0.85;;;;;;;3.09;100.00;98050.72;5022023;28;20096;-75
2024/03/24 04:13:20;;;;;;;1.42;1.00;;;;;;;2.99;100.00;98050.13;5032797;28;20055;-74
2024/03/24 04:15:45;;;;;;;2.55;0.90;;;;;;;3.08;100.00;98043.72;5029698;28;20344;-76
2024/03/24 04:18:10;;;;;;;1.27;0.90;;;;;;;3.03;100.00;98046.91;5032671;28;20033;-75
2024/03/24 04:20:36;;;;;;;1.30;0.80;;;;;;;2.97;100.00;98044.13;5037060;28;20088;-76
2024/03/24 04:23:05;;;;;;;2.15;0.90;;;;;;;2.97;100.00;98046.81;5024189;28;20051;-76
2024/03/24 04:25:30;;;;;;;1.15;0.73;;;;;;;2.82;100.00;98041.34;5025166;28;20018;-75
2024/03/24 04:27:56;;;;;;;1.98;0.98;;;;;;;2.68;100.00;98024.19;5025720;28;20187;-75
2024/03/24 04:30:21;;;;;;;2.35;0.80;;;;;;;2.79;100.00;98050.53;5043451;28;20267;-75
2024/03/24 04:32:47;;;;;;;1.20;1.05;;;;;;;2.72;100.00;98032.69;5049490;28;20182;-75
2024/03/24 04:35:12;;;;;;;1.73;0.80;;;;;;;2.79;100.00;98044.38;5056258;28;20057;-75
2024/03/24 04:37:38;;;;;;;1.52;0.90;;;;;;;2.80;100.00;98052.22;5031050;28;20032;-75
2024/03/24 04:40:08;;;;;;;2.28;1.23;;;;;;;2.76;100.00;98045.53;5049915;28;20026;-76
2024/03/24 04:42:33;;;;;;;2.00;1.10;;;;;;;2.72;100.00;98036.19;5043120;28;20033;-76
2024/03/24 04:45:00;;;;;;;3.05;1.38;;;;;;;2.82;100.00;98038.66;5036561;28;20210;-76
2024/03/24 04:47:27;;;;;;;3.22;1.10;;;;;;;2.83;100.00;98049.19;5033456;28;20076;-75
2024/03/24 04:49:52;;;;;;;1.88;1.02;;;;;;;2.77;100.00;98049.88;5030294;28;20045;-74
2024/03/24 04:52:18;;;;;;;1.90;1.13;;;;;;;2.58;100.00;98019.06;5034284;28;20032;-74
2024/03/24 04:54:43;;;;;;;2.15;1.08;;;;;;;2.68;100.00;98053.59;5030744;28;20022;-74
2024/03/24 04:57:08;;;;;;;2.17;1.35;;;;;;;2.44;100.00;98018.91;5026596;28;20352;-75
2024/03/24 04:59:34;;;;;;;2.67;1.27;;;;;;;2.35;100.00;98023.44;5020982;28;20057;-75
2024/03/24 05:01:59;;;;;;;6.28;1.08;;;;;;;2.31;100.00;98030.16;5030829;28;20095;-74
2024/03/24 05:04:24;;;;;;;4.07;1.45;;;;;;;2.30;100.00;98039.16;5044519;28;20031;-74
2024/03/24 05:06:50;;;;;;;2.72;1.40;;;;;;;2.38;100.00;98057.81;5035231;28;20119;-75
2024/03/24 05:09:16;;;;;;;3.45;1.25;;;;;;;2.27;100.00;98037.66;5023194;28;20068;-75
2024/03/24 05:11:41;;;;;;;2.60;1.55;;;;;;;2.35;100.00;98045.63;5036696;28;20031;-75
2024/03/24 05:14:07;;;;;;;3.33;1.70;;;;;;;2.44;100.00;98040.28;5033565;28;20047;-75
2024/03/24 05:16:32;;;;;;;3.38;1.88;;;;;;;2.35;100.00;98037.63;5041184;28;20105;-76
2024/03/24 05:19:03;;;;;;;3.10;1.50;;;;;;;2.43;100.00;98042.13;5035117;28;20025;-76
2024/03/24 05:21:28;;;;;;;6.35;2.20;;;;;;;2.50;100.00;98048.44;5023890;28;20028;-76
2024/03/24 05:23:54;;;;;;;4.38;2.10;;;;;;;2.52;100.00;98053.63;5031383;28;20021;-75
2024/03/24 05:26:19;;;;;;;5.78;1.92;;;;;;;2.54;100.00;98057.81;5018689;28;20278;-75
2024/03/24 05:28:44;;;;;;;5.45;1.80;;;;;;;2.58;100.00;98050.28;5042921;28;20041;-75
2024/03/24 05:31:10;;;;;;;3.70;1.80;;;;;;;2.76;100.00;98061.56;5042382;28;20022;-75
2024/03/24 05:33:35;;;;;;;6.57;1.63;;;;;;;2.80;100.00;98062.91;5018884;28;20029;-75
2024/03/24 05:36:03;;;;;;;3.63;1.98;;;;;;;2.91;100.00;98061.69;5030059;28;20029;-75
2024/03/24 05:38:31;;;;;;;3.85;1.95;;;;;;;2.93;100.00;98053.47;5036134;28;20037;-75
2024/03/24 05:41:07;;;;;;;6.22;1.77;;;;;;;2.91;100.00;98036.78;5026915;28;20030;-75
2024/03/24 05:43:33;;;;;;;2.65;1.70;;;;;;;3.08;100.00;98073.13;5046143;28;20033;-75
2024/03/24 05:45:58;;;;;;;4.55;2.05;;;;;;;3.03;100.00;98070.16;5041591;28;20024;-76
2024/03/24 05:48:23;;;;;;;6.25;1.98;;;;;;;2.97;100.00;98049.47;5041593;28;20033;-75
2024/03/24 05:50:56;;;;;;;3.88;1.80;;;;;;;3.03;100.00;98062.13;5038540;22;20056;-75
2024/03/24 05:53:22;;;;;;;3.78;1.75;;;;;;;3.11;100.00;98064.75;5036742;28;20388;-74
2024/03/24 05:55:47;;;;;;;3.08;1.27;;;;;;;3.08;100.00;98046.41;5037747;28;20026;-75
2024/03/24 05:58:12;;;;;;;6.78;1.50;;;;;;;3.18;100.00;98071.09;5042914;28;20055;-74
2024/03/24 06:00:37;;;;;;;3.38;1.38;;;;;;;3.21;100.00;98059.22;5038123;28;20097;-75
2024/03/24 06:03:03;;;;;;;2.13;1.08;;;;;;;3.35;100.00;98076.34;5040417;28;20026;-75
2024/03/24 06:05:28;;;;;;;1.85;1.13;;;;;;;3.40;100.00;98065.94;5041163;28;20038;-77
2024/03/24 06:07:53;;;;;;;3.92;1.25;;;;;;;3.35;100.00;98069.16;5040041;28;20104;-77
2024/03/24 06:10:19;;;;;;;4.25;1.20;;;;;;;3.35;100.00;98054.94;5037160;28;20026;-76
2024/03/24 06:12:44;;;;;;;2.60;1.00;;;;;;;3.26;100.00;98044.31;5040991;28;20105;-81
2024/03/24 06:15:10;;;;;;;2.80;1.00;;;;;;;3.50;100.00;98047.84;5049163;28;20048;-81
2024/03/24 06:17:35;;;;;;;5.68;1.40;;;;;;;3.37;100.00;98024.34;5054625;28;20013;-81
2024/03/24 06:20:07;;;;;;;3.95;1.20;;;;;;;3.53;100.00;98052.84;5047854;23;20049;-58
2024/03/24 06:30:26;;;;;;;2.35;1.00;;;;;;;4.80;100.00;98035.13;5183493;22;20041;-79
2024/03/24 06:32:54;;;;;;;2.65;1.08;;;;;;;4.33;100.00;98048.88;5037502;28;20045;-79
2024/03/24 06:35:20;;;;;;;3.03;1.10;;;;;;;4.10;100.00;98025.63;5060568;28;20013;-78
2024/03/24 06:37:46;;;;;;;3.38;1.35;;;;;;;3.81;100.00;98022.91;5040479;28;20036;-78
2024/03/24 06:40:11;;;;;;;4.13;1.45;;;;;;;3.86;100.00;98041.91;5024302;28;20067;-76
2024/03/24 06:42:48;;;;;;;2.47;1.00;;;;;;;3.90;100.00;98065.47;5028787;28;20026;-76
2024/03/24 06:45:14;;;;;;;5.95;1.58;;;;;;;3.58;100.00;98039.75;5047180;28;20055;-75
2024/03/24 06:47:39;;;;;;;3.08;1.30;;;;;;;3.85;100.00;98045.59;5050733;28;20053;-78
2024/03/24 06:50:06;;;;;;;2.17;1.08;;;;;;;3.88;100.00;98056.78;5046557;28;20127;-78
2024/03/24 06:52:34;;;;;;;2.05;1.20;;;;;;;3.78;100.00;98025.94;5021301;28;20021;-78
2024/03/24 06:55:00;;;;;;;2.58;1.55;;;;;;;3.67;100.00;98049.41;5049344;28;20128;-77
2024/03/24 06:57:26;;;;;;;3.45;1.60;;;;;;;3.85;100.00;98037.56;5037621;28;20029;-79
2024/03/24 06:59:52;;;;;;;2.83;1.40;;;;;;;4.18;100.00;98020.22;5027070;28;20017;-79
2024/03/24 07:02:18;;;;;;;6.57;1.20;;;;;;;4.26;100.00;98046.06;5026754;28;20053;-76
2024/03/24 07:04:43;;;;;;;2.17;1.10;;;;;;;4.43;100.00;98036.06;5033006;28;20022;-78
2024/03/24 07:07:10;;;;;;;4.35;1.20;;;;;;;4.46;100.00;98050.94;5017015;28;20041;-77
2024/03/24 07:09:35;;;;;;;2.35;1.30;;;;;;;7.61;100.00;98015.69;5011066;28;20350;-78
2024/03/24 07:12:01;;;;;;;3.08;1.17;;;;;;;12.16;100.00;98002.50;5033174;28;20041;-77
2024/03/24 07:14:26;;;;;;;3.13;0.65;;;;;;;9.82;100.00;98004.25;5008861;28;20032;-78
2024/03/24 07:19:17;;;;;;;1.42;0.80;;;;;;;10.18;100.00;98018.94;5056039;22;20408;-53
2024/03/24 07:21:45;;;;;;;1.80;0.70;;;;;;;10.09;100.00;98020.25;5053885;28;20040;-52
2024/03/24 07:24:11;;;;;;;1.60;0.75;;;;;;;9.55;100.00;98018.94;5058519;28;20043;-52
2024/03/24 07:26:37;;;;;;;4.70;0.70;;;;;;;9.78;100.00;98030.03;5054049;28;20052;-52
2024/03/24 07:29:03;;;;;;;6.10;1.05;;;;;;;8.97;100.00;98028.72;5042718;28;20057;-52
2024/03/24 07:31:28;;;;;;;1.83;0.70;;;;;;;10.77;100.00;98021.34;5050222;28;20106;-52
2024/03/24 07:33:55;;;;;;;1.70;0.50;;;;;;;12.64;100.00;98009.59;5034033;28;20036;-53
2024/03/24 07:36:20;;;;;;;1.10;0.70;;;;;;;12.46;100.00;98022.22;5055356;28;20029;-54
2024/03/24 07:38:46;;;;;;;3.13;0.65;;;;;;;11.10;100.00;98026.41;5054116;28;20066;-53
2024/03/24 07:41:11;;;;;;;2.47;0.45;;;;;;;10.27;100.00;98019.47;5041043;28;20031;-53
2024/03/24 07:43:37;;;;;;;5.43;0.82;;;;;;;9.40;100.00;98027.31;5037384;28;20153;-53
2024/03/24 07:46:02;;;;;;;5.90;0.93;;;;;;;11.91;100.00;98016.22;5049406;28;20029;-53
2024/03/24 07:48:28;;;;;;;2.45;0.80;;;;;;;14.92;88.36;98004.38;5051276;28;20037;-53
2024/03/24 07:50:53;;;;;;;1.58;0.60;;;;;;;16.56;77.22;97996.88;5053659;28;20115;-53
2024/03/24 07:53:19;;;;;;;4.00;0.68;;;;;;;14.36;73.19;98010.56;5049033;28;20064;-53
2024/03/24 07:55:44;;;;;;;1.77;0.68;;;;;;;17.14;70.06;98002.47;5047980;28;20079;-53
2024/03/24 07:58:09;;;;;;;4.88;0.73;;;;;;;16.88;65.34;97993.28;5058944;28;20029;-53
2024/03/24 08:00:35;;;;;;;1.92;0.50;;;;;;;15.56;66.61;98002.75;5055758;28;20060;-53
2024/03/24 08:03:02;;;;;;;0.88;0.45;;;;;;;13.28;75.27;98020.53;5054809;28;20032;-53
2024/03/24 08:05:27;;;;;;;3.20;0.60;;;;;;;13.56;79.97;98008.88;5056733;28;20025;-53
2024/03/24 08:07:53;;;;;;;1.63;0.55;;;;;;;11.49;82.41;98014.25;5056622;28;20036;-53
2024/03/24 08:10:18;;;;;;;3.20;0.73;;;;;;;9.18;100.00;98024.91;5059743;28;20029;-53
2024/03/24 08:12:46;;;;;;;2.50;0.40;;;;;;;8.50;100.00;98024.47;5039659;28;20445;-53
2024/03/24 08:15:11;;;;;;;3.42;0.55;;;;;;;7.89;100.00;98031.69;5047551;28;20028;-53
2024/03/24 08:17:36;;;;;;;3.35;0.60;;;;;;;6.97;100.00;98045.66;5046364;28;20058;-53
2024/03/24 08:20:02;;;;;;;2.20;0.63;;;;;;;6.82;100.00;98023.44;5057490;28;20362;-53
2024/03/24 08:22:28;;;;;;;3.00;0.75;;;;;;;6.90;100.00;98039.41;5051381;28;22089;-53
2024/03/24 08:24:53;;;;;;;5.05;0.60;;;;;;;7.13;100.00;98039.13;5050791;28;20038;-53
2024/03/24 08:27:20;;;;;;;5.05;0.90;;;;;;;7.19;100.00;98033.75;5053129;28;20045;-52
2024/03/24 08:29:45;;;;;;;3.83;0.73;;;;;;;6.91;100.00;98025.75;5053817;28;20357;-53
2024/03/24 08:32:11;;;;;;;3.03;1.00;;;;;;;7.27;100.00;98026.56;5053131;28;20017;-52
2024/03/24 08:34:36;;;;;;;3.13;0.90;;;;;;;7.90;100.00;98037.91;5055757;28;20051;-52
2024/03/24 08:37:06;;;;;;;3.13;0.50;;;;;;;8.26;100.00;98036.69;5051701;28;20030;-52
2024/03/24 08:39:31;;;;;;;4.10;0.75;;;;;;;8.54;100.00;98034.63;5040780;28;20438;-52
2024/03/24 08:41:57;;;;;;;3.40;0.50;;;;;;;8.37;100.00;98033.34;5035717;28;20108;-52
2024/03/24 08:44:24;;;;;;;2.25;0.70;;;;;;;8.21;100.00;98039.19;5051054;28;20499;-52
2024/03/24 08:46:49;;;;;;;1.65;0.57;;;;;;;7.77;100.00;98027.09;5053542;28;20380;-52
2024/03/24 08:49:15;;;;;;;2.22;0.60;;;;;;;7.88;100.00;98026.50;5045117;28;20037;-52
2024/03/24 08:51:42;;;;;;;2.25;0.50;;;;;;;7.25;100.00;98032.13;5053563;28;20070;-52
2024/03/24 08:54:08;;;;;;;2.03;0.65;;;;;;;7.07;100.00;98038.03;5051766;28;20035;-52
2024/03/24 08:56:34;;;;;;;2.60;0.65;;;;;;;7.07;100.00;98039.91;5059343;28;20029;-53
2024/03/24 08:58:59;;;;;;;3.60;0.80;;;;;;;6.94;100.00;98032.59;5048660;28;20032;-52
2024/03/24 09:01:25;;;;;;;3.20;0.77;;;;;;;7.13;100.00;98020.31;5049871;28;20374;-52
2024/03/24 09:03:51;;;;;;;5.05;0.90;;;;;;;6.89;100.00;98025.16;5052523;28;20061;-52
2024/03/24 09:06:17;;;;;;;4.95;0.90;;;;;;;7.11;100.00;98022.34;5057802;28;20090;-52
2024/03/24 09:08:42;;;;;;;1.98;0.75;;;;;;;6.78;100.00;98028.38;5044417;28;20021;-52
2024/03/24 09:11:09;;;;;;;3.33;0.93;;;;;;;6.43;100.00;98016.81;5058421;28;20029;-60
2024/03/24 09:13:36;;;;;;;2.72;0.85;;;;;;;6.69;100.00;98027.72;5050814;28;20055;-59
2024/03/24 09:16:04;;;;;;;2.67;0.98;;;;;;;6.79;100.00;98014.75;5054467;28;20512;-59
2024/03/24 09:18:30;;;;;;;3.05;0.82;;;;;;;6.92;100.00;98007.78;5048586;28;20402;-59
2024/03/24 09:21:01;;;;;;;4.05;0.98;;;;;;;7.11;100.00;98020.50;5054322;28;20027;-61
2024/03/24 09:23:27;;;;;;;4.15;1.02;;;;;;;6.77;100.00;98032.09;5050905;28;20017;-60
2024/03/24 09:25:52;;;;;;;1.42;0.80;;;;;;;6.99;100.00;98030.16;5055466;28;20104;-60
2024/03/24 09:28:18;;;;;;;6.45;1.40;;;;;;;6.72;100.00;98013.88;5062042;28;20032;-60
2024/03/24 09:30:57;;;;;;;2.10;0.80;;;;;;;6.85;100.00;98037.31;5049127;28;20470;-60
2024/03/24 09:33:22;;;;;;;3.17;0.97;;;;;;;6.75;100.00;98024.22;5048828;28;20064;-60
2024/03/24 09:35:48;;;;;;;5.25;1.52;;;;;;;6.62;100.00;98034.91;5062846;28;20791;-59
2024/03/24 09:38:13;;;;;;;6.80;1.17;;;;;;;6.48;100.00;98028.63;5054593;28;20043;-59
2024/03/24 09:40:40;;;;;;;6.05;0.93;;;;;;;6.46;100.00;98019.09;5050216;28;20021;-60
2024/03/24 09:43:06;;;;;;;6.57;1.08;;;;;;;6.66;100.00;98032.66;5051324;28;20079;-59
2024/03/24 09:45:33;;;;;;;2.95;1.13;;;;;;;6.57;100.00;98032.78;5055742;28;20028;-60
2024/03/24 09:47:59;;;;;;;5.35;0.77;;;;;;;6.92;100.00;98027.44;5059618;28;20027;-61
2024/03/24 09:50:25;;;;;;;6.25;1.10;;;;;;;6.83;100.00;98023.25;5053795;28;20103;-60
2024/03/24 09:52:54;;;;;;;7.63;0.80;;;;;;;6.61;100.00;98010.94;5055353;28;20030;-60
2024/03/24 09:55:25;;;;;;;1.88;0.80;;;;;;;7.17;100.00;98019.66;5060198;28;20025;-61
2024/03/24 09:57:52;;;;;;;4.88;1.02;;;;;;;7.18;100.00;97999.84;5055944;28;20128;-60
2024/03/24 10:00:18;;;;;;;5.22;1.23;;;;;;;6.93;100.00;97999.50;5046281;28;20029;-60
2024/03/24 10:02:44;;;;;;;3.88;1.73;;;;;;;7.03;100.00;98017.97;5059894;28;20024;-61
2024/03/24 10:05:10;;;;;;;5.90;1.05;;;;;;;7.18;100.00;98012.47;5052448;28;20025;-61
2024/03/24 10:07:35;;;;;;;3.10;1.10;;;;;;;7.82;100.00;98020.06;5052527;28;20039;-60
2024/03/24 10:10:01;;;;;;;3.35;1.02;;;;;;;7.73;100.00;98021.31;5059104;28;20370;-61
2024/03/24 10:12:27;;;;;;;5.35;0.98;;;;;;;7.55;100.00;98010.28;5059438;28;20036;-61
2024/03/24 10:14:53;;;;;;;4.30;1.10;;;;;;;7.64;100.00;98017.97;5062668;28;20029;-61
2024/03/24 10:17:22;;;;;;;5.97;0.80;;;;;;;7.80;100.00;98024.00;5047707;28;20099;-60
2024/03/24 10:19:51;;;;;;;3.28;0.90;;;;;;;7.81;100.00;98013.03;5054917;28;20111;-60
2024/03/24 10:22:17;;;;;;;2.17;1.00;;;;;;;8.13;100.00;98021.34;5055741;28;20087;-61
2024/03/24 10:24:46;;;;;;;4.68;1.17;;;;;;;8.01;100.00;98014.91;5053219;28;20029;-61
2024/03/24 10:27:14;;;;;;;3.50;1.00;;;;;;;7.57;100.00;98016.28;5046730;28;20048;-61
2024/03/24 10:29:40;;;;;;;5.27;1.20;;;;;;;7.37;100.00;98011.69;5052909;28;20372;-60
2024/03/24 10:32:08;;;;;;;6.47;1.10;;;;;;;7.69;100.00;98004.72;5046474;28;20290;-60
2024/03/24 10:34:35;;;;;;;4.20;1.00;;;;;;;7.75;100.00;98018.41;5054703;28;20060;-60
2024/03/24 10:37:01;;;;;;;3.20;1.08;;;;;;;7.35;100.00;98019.13;5057741;28;20070;-60
2024/03/24 10:39:27;;;;;;;8.45;1.23;;;;;;;7.54;100.00;98032.84;5050558;28;20104;-60
2024/03/24 10:41:54;;;;;;;4.50;1.05;;;;;;;7.44;100.00;98006.31;5054056;28;20016;-60
2024/03/24 10:44:20;;;;;;;4.60;0.80;;;;;;;7.31;100.00;98014.34;5048672;28;20024;-60
2024/03/24 10:46:48;;;;;;;4.28;0.93;;;;;;;7.45;100.00;98003.44;5056941;28;20082;-61
2024/03/24 10:49:17;;;;;;;5.40;0.80;;;;;;;7.55;100.00;98010.28;5047484;28;20024;-61
2024/03/24 10:51:44;;;;;;;4.88;0.80;;;;;;;7.35;100.00;98002.16;5035509;28;20070;-61
2024/03/24 10:54:10;;;;;;;3.90;0.90;;;;;;;7.20;100.00;97988.84;5056619;28;20085;-60
2024/03/24 10:56:36;;;;;;;4.47;0.90;;;;;;;7.53;100.00;98004.28;5052080;28;20065;-60
2024/03/24 10:59:03;;;;;;;2.92;0.93;;;;;;;7.45;100.00;97999.91;5048008;28;20722;-61
2024/03/24 11:01:29;;;;;;;3.05;1.05;;;;;;;7.18;100.00;97994.44;5047452;28;20016;-60
2024/03/24 11:03:57;;;;;;;6.75;1.00;;;;;;;7.02;100.00;97982.19;5051221;28;20017;-59
2024/03/24 11:06:27;;;;;;;3.50;1.15;;;;;;;7.00;100.00;97983.41;5045647;28;20024;-60
2024/03/24 11:08:52;;;;;;;4.80;1.38;;;;;;;7.18;100.00;97982.88;5043892;28;20393;-60
2024/03/24 11:11:19;;;;;;;4.57;1.00;;;;;;;7.07;100.00;97976.19;5046192;28;20029;-60
2024/03/24 11:13:45;;;;;;;2.22;1.10;;;;;;;7.37;100.00;97963.25;5053901;28;20455;-59
2024/03/24 11:16:10;;;;;;;4.10;1.00;;;;;;;7.45;100.00;97981.91;5046636;28;20051;-60
2024/03/24 11:18:36;;;;;;;3.90;1.00;;;;;;;7.14;100.00;97968.16;5037147;28;20468;-60
2024/03/24 11:21:07;;;;;;;2.63;1.20;;;;;;;7.42;100.00;97973.41;5049396;28;20044;-60
2024/03/24 11:23:35;;;;;;;3.67;1.23;;;;;;;7.38;100.00;97974.84;5053009;28;20025;-60
2024/03/24 11:26:29;;;;;;;4.40;1.35;;;;;;;7.45;100.00;97973.00;5048270;28;20107;-60
2024/03/24 11:28:55;;;;;;;2.28;0.90;;;;;;;7.44;100.00;97955.16;5047129;28;20053;-60
2024/03/24 11:31:22;;;;;;;6.35;1.30;;;;;;;8.01;100.00;97967.25;5052691;28;20029;-61
2024/03/24 11:33:59;;;;;;;2.10;1.00;;;;;;;8.41;100.00;97977.19;5051348;28;20028;-60
2024/03/24 11:36:26;;;;;;;3.65;1.30;;;;;;;8.47;100.00;97974.50;5025892;28;20036;-60
2024/03/24 11:38:53;;;;;;;4.47;1.23;;;;;;;8.53;100.00;97979.03;5045330;28;20030;-60